PWSweather.com
Personal Weather Stations
Station Observations

PoschiavoCH

Lat: 46.31962499999999, Lon: 10.066551000000004

Elevation: 3517

Station Type: WH 1080

http://www.meteoposchiavo.com

Latest ConditionsUpdated 7:55:01 PM GMT+01:01 Saturday, Aug 24, 2019
Currently Today's Max Today's Min Today's Average
Temperature 63.0°F17.2°C 76.0°F24.4°C 56.0°F13.3°C 64.7°F18.2°C
Dew Point 58.7°F14.8°C 62.6°F17.0°C 54.6°F12.6°C 58.1°F14.5°C
Winds Calm Calm 2.3 mph -3.7 kmh - - 0.1 mph 0.2 kmh
Wind Gusts -- 3.5 mph5.6 kmh - -
Humidity 86% 96% 57% 80%
Pressure 26.63 in901.8 mb 26.70 in904.2 mb 26.61 in901.1 mb -
Hour Temp Dew Point Humidity Winds Wind Gusts Pressure Precip Precip Rate Daily Precip Total
07:55 PM 63.0°F17.2°C 58.7°F14.8°C 86% Calm Calm -- 26.63 in901.8 mb - 0.00 in0.0 mm 0.00 in0.0 mm
07:50 PM 63.0°F17.2°C 58.7°F14.8°C 86% Calm Calm -- 26.62 in901.5 mb - 0.00 in0.0 mm 0.00 in0.0 mm
07:45 PM 64.0°F17.8°C 59.4°F15.2°C 85% Calm Calm -- 26.63 in901.8 mb - 0.00 in0.0 mm 0.00 in0.0 mm
07:40 PM 64.0°F17.8°C 59.4°F15.2°C 85% Calm Calm -- 26.62 in901.5 mb - 0.00 in0.0 mm 0.00 in0.0 mm
07:35 PM 64.0°F17.8°C 59.4°F15.2°C 85% Calm Calm -- 26.62 in901.5 mb - 0.00 in0.0 mm 0.00 in0.0 mm
07:30 PM 64.6°F18.1°C 60.0°F15.6°C 85% Calm Calm -- 26.62 in901.5 mb - 0.00 in0.0 mm 0.00 in0.0 mm
07:25 PM 65.0°F18.3°C 60.4°F15.8°C 85% Calm Calm -- 26.62 in901.5 mb - 0.00 in0.0 mm 0.00 in0.0 mm
07:20 PM 65.0°F18.3°C 60.0°F15.6°C 84% Calm Calm -- 26.61 in901.1 mb - 0.00 in0.0 mm 0.00 in0.0 mm
07:15 PM 65.0°F18.3°C 59.7°F15.4°C 83% Calm Calm -- 26.62 in901.5 mb - 0.00 in0.0 mm 0.00 in0.0 mm
07:10 PM 66.0°F18.9°C 60.3°F15.7°C 82% Calm Calm -- 26.62 in901.5 mb - 0.00 in0.0 mm 0.00 in0.0 mm
07:00 PM 66.0°F18.9°C 60.7°F15.9°C 83% Calm Calm -- 26.61 in901.1 mb - 0.00 in0.0 mm 0.00 in0.0 mm
06:55 PM 66.0°F18.9°C 60.7°F15.9°C 83% Calm Calm -- 26.61 in901.1 mb - 0.00 in0.0 mm 0.00 in0.0 mm
06:50 PM 67.0°F19.4°C 62.0°F16.7°C 84% Calm Calm -- 26.61 in901.1 mb - 0.00 in0.0 mm 0.00 in0.0 mm
06:45 PM 67.0°F19.4°C 62.0°F16.7°C 84% Calm Calm -- 26.62 in901.5 mb - 0.00 in0.0 mm 0.00 in0.0 mm
06:40 PM 68.0°F20.0°C 61.9°F16.6°C 81% Calm Calm -- 26.62 in901.5 mb - 0.00 in0.0 mm 0.00 in0.0 mm
06:35 PM 68.0°F20.0°C 61.9°F16.6°C 81% Calm Calm -- 26.62 in901.5 mb - 0.00 in0.0 mm 0.00 in0.0 mm
06:30 PM 68.0°F20.0°C 62.3°F16.8°C 82% Calm Calm -- 26.62 in901.5 mb - 0.00 in0.0 mm 0.00 in0.0 mm
06:25 PM 68.0°F20.0°C 62.6°F17.0°C 83% Calm Calm -- 26.62 in901.5 mb - 0.00 in0.0 mm 0.00 in0.0 mm
06:20 PM 68.0°F20.0°C 61.2°F16.2°C 79% Calm Calm -- 26.61 in901.1 mb - 0.00 in0.0 mm 0.00 in0.0 mm
06:15 PM 68.0°F20.0°C 60.9°F16.1°C 78% Calm Calm -- 26.62 in901.5 mb - 0.00 in0.0 mm 0.00 in0.0 mm
06:10 PM 68.0°F20.0°C 61.6°F16.4°C 80% Calm Calm -- 26.61 in901.1 mb - 0.00 in0.0 mm 0.00 in0.0 mm
06:00 PM 69.0°F20.6°C 61.5°F16.4°C 77% Calm Calm -- 26.62 in901.5 mb - 0.00 in0.0 mm 0.00 in0.0 mm
05:55 PM 69.0°F20.6°C 61.1°F16.2°C 76% Calm Calm -- 26.62 in901.5 mb - 0.00 in0.0 mm 0.00 in0.0 mm
05:50 PM 69.0°F20.6°C 61.9°F16.6°C 78% Calm Calm -- 26.62 in901.5 mb - 0.00 in0.0 mm 0.00 in0.0 mm
05:45 PM 69.0°F20.6°C 61.9°F16.6°C 78% Calm Calm -- 26.62 in901.5 mb - 0.00 in0.0 mm 0.00 in0.0 mm
05:40 PM 69.0°F20.6°C 61.5°F16.4°C 77% Calm Calm -- 26.62 in901.5 mb - 0.00 in0.0 mm 0.00 in0.0 mm
05:35 PM 69.0°F20.6°C 62.2°F16.8°C 79% Calm Calm -- 26.62 in901.5 mb - 0.00 in0.0 mm 0.00 in0.0 mm
05:30 PM 69.0°F20.6°C 62.2°F16.8°C 79% Calm Calm -- 26.62 in901.5 mb - 0.00 in0.0 mm 0.00 in0.0 mm
05:25 PM 69.0°F20.6°C 61.5°F16.4°C 77% Calm Calm -- 26.62 in901.5 mb - 0.00 in0.0 mm 0.00 in0.0 mm
05:20 PM 69.0°F20.6°C 60.7°F15.9°C 75% Calm Calm -- 26.62 in901.5 mb - 0.00 in0.0 mm 0.00 in0.0 mm
05:15 PM 69.0°F20.6°C 61.1°F16.2°C 76% Calm Calm -- 26.62 in901.5 mb - 0.00 in0.0 mm 0.00 in0.0 mm
05:10 PM 69.0°F20.6°C 61.1°F16.2°C 76% Calm Calm -- 26.62 in901.5 mb - 0.00 in0.0 mm 0.00 in0.0 mm
05:00 PM 70.0°F21.1°C 62.1°F16.7°C 76% Calm Calm -- 26.63 in901.8 mb - 0.00 in0.0 mm 0.00 in0.0 mm
04:55 PM 70.0°F21.1°C 59.4°F15.2°C 69% Calm Calm -- 26.63 in901.8 mb - 0.00 in0.0 mm 0.00 in0.0 mm
04:50 PM 70.0°F21.1°C 59.0°F15.0°C 68% Calm Calm 1.2 mph1.9 kmh 26.62 in901.5 mb - 0.00 in0.0 mm 0.00 in0.0 mm
04:45 PM 71.0°F21.7°C 59.5°F15.3°C 67% 1.2 mph NW1.9 kmh NW 1.2 mph1.9 kmh 26.63 in901.8 mb - 0.00 in0.0 mm 0.00 in0.0 mm
04:40 PM 71.0°F21.7°C 60.3°F15.7°C 69% Calm Calm -- 26.63 in901.8 mb - 0.00 in0.0 mm 0.00 in0.0 mm
04:35 PM 71.0°F21.7°C 59.9°F15.5°C 68% Calm Calm -- 26.63 in901.8 mb - 0.00 in0.0 mm 0.00 in0.0 mm
04:30 PM 71.0°F21.7°C 59.1°F15.1°C 66% Calm Calm -- 26.62 in901.5 mb - 0.00 in0.0 mm 0.00 in0.0 mm
04:25 PM 71.0°F21.7°C 60.3°F15.7°C 69% Calm Calm -- 26.63 in901.8 mb - 0.00 in0.0 mm 0.00 in0.0 mm
04:20 PM 70.0°F21.1°C 59.0°F15.0°C 68% Calm Calm -- 26.62 in901.5 mb - 0.00 in0.0 mm 0.00 in0.0 mm
04:15 PM 70.0°F21.1°C 58.1°F14.5°C 66% Calm Calm -- 26.62 in901.5 mb - 0.00 in0.0 mm 0.00 in0.0 mm
04:10 PM 70.0°F21.1°C 59.8°F15.4°C 70% Calm Calm 1.2 mph1.9 kmh 26.63 in901.8 mb - 0.00 in0.0 mm 0.00 in0.0 mm
04:00 PM 70.0°F21.1°C 59.4°F15.2°C 69% 1.2 mph WNW1.9 kmh WNW 1.2 mph1.9 kmh 26.62 in901.5 mb - 0.00 in0.0 mm 0.00 in0.0 mm
03:55 PM 72.0°F22.2°C 60.0°F15.6°C 66% 1.2 mph NW1.9 kmh NW 1.2 mph1.9 kmh 26.62 in901.5 mb - 0.00 in0.0 mm 0.00 in0.0 mm
03:50 PM 73.0°F22.8°C 60.5°F15.8°C 65% Calm Calm -- 26.63 in901.8 mb - 0.00 in0.0 mm 0.00 in0.0 mm
03:45 PM 73.0°F22.8°C 60.1°F15.6°C 64% Calm Calm 1.2 mph1.9 kmh 26.62 in901.5 mb - 0.00 in0.0 mm 0.00 in0.0 mm
03:40 PM 71.3°F21.8°C 59.3°F15.2°C 66% Calm Calm 1.2 mph1.9 kmh 26.62 in901.5 mb - 0.00 in0.0 mm 0.00 in0.0 mm
03:35 PM 71.0°F21.7°C 59.1°F15.1°C 66% Calm Calm 1.2 mph1.9 kmh 26.62 in901.5 mb - 0.00 in0.0 mm 0.00 in0.0 mm
03:30 PM 70.0°F21.1°C 59.4°F15.2°C 69% Calm Calm -- 26.62 in901.5 mb - 0.00 in0.0 mm 0.00 in0.0 mm
03:25 PM 70.0°F21.1°C 59.0°F15.0°C 68% Calm Calm -- 26.62 in901.5 mb - 0.00 in0.0 mm 0.00 in0.0 mm
03:20 PM 70.0°F21.1°C 59.0°F15.0°C 68% Calm Calm 1.2 mph1.9 kmh 26.63 in901.8 mb - 0.00 in0.0 mm 0.00 in0.0 mm
03:15 PM 70.0°F21.1°C 59.8°F15.4°C 70% Calm Calm -- 26.62 in901.5 mb - 0.00 in0.0 mm 0.00 in0.0 mm
03:10 PM 70.6°F21.4°C 60.0°F15.6°C 69% Calm Calm 2.3 mph3.7 kmh 26.63 in901.8 mb - 0.00 in0.0 mm 0.00 in0.0 mm
03:00 PM 70.0°F21.1°C 59.4°F15.2°C 69% 1.2 mph NW1.9 kmh NW 2.3 mph3.7 kmh 26.63 in901.8 mb - 0.00 in0.0 mm 0.00 in0.0 mm
02:55 PM 71.0°F21.7°C 59.9°F15.5°C 68% Calm Calm 2.3 mph3.7 kmh 26.63 in901.8 mb - 0.00 in0.0 mm 0.00 in0.0 mm
02:50 PM 71.0°F21.7°C 58.6°F14.8°C 65% 2.3 mph NW3.7 kmh NW 2.3 mph3.7 kmh 26.62 in901.5 mb - 0.00 in0.0 mm 0.00 in0.0 mm
02:45 PM 71.0°F21.7°C 61.1°F16.2°C 71% Calm Calm 2.3 mph3.7 kmh 26.62 in901.5 mb - 0.00 in0.0 mm 0.00 in0.0 mm
02:40 PM 71.0°F21.7°C 59.9°F15.5°C 68% Calm Calm 2.3 mph3.7 kmh 26.62 in901.5 mb - 0.00 in0.0 mm 0.00 in0.0 mm
02:35 PM 71.0°F21.7°C 58.6°F14.8°C 65% Calm Calm 1.2 mph1.9 kmh 26.62 in901.5 mb - 0.00 in0.0 mm 0.00 in0.0 mm
02:30 PM 71.0°F21.7°C 60.3°F15.7°C 69% Calm Calm 1.2 mph1.9 kmh 26.63 in901.8 mb - 0.00 in0.0 mm 0.00 in0.0 mm
02:25 PM 72.0°F22.2°C 59.6°F15.3°C 65% Calm Calm -- 26.63 in901.8 mb - 0.00 in0.0 mm 0.00 in0.0 mm
02:20 PM 72.0°F22.2°C 60.9°F16.1°C 68% Calm Calm 1.2 mph1.9 kmh 26.63 in901.8 mb - 0.00 in0.0 mm 0.00 in0.0 mm
02:15 PM 71.0°F21.7°C 59.5°F15.3°C 67% Calm Calm 1.2 mph1.9 kmh 26.63 in901.8 mb - 0.00 in0.0 mm 0.00 in0.0 mm
02:10 PM 71.4°F21.9°C 59.9°F15.5°C 67% Calm Calm 1.2 mph1.9 kmh 26.63 in901.8 mb - 0.00 in0.0 mm 0.00 in0.0 mm
02:00 PM 73.0°F22.8°C 59.7°F15.4°C 63% Calm Calm 1.2 mph1.9 kmh 26.64 in902.1 mb - 0.00 in0.0 mm 0.00 in0.0 mm
01:55 PM 72.0°F22.2°C 59.2°F15.1°C 64% Calm Calm -- 26.64 in902.1 mb - 0.00 in0.0 mm 0.00 in0.0 mm
01:50 PM 71.0°F21.7°C 59.9°F15.5°C 68% Calm Calm 2.3 mph3.7 kmh 26.64 in902.1 mb - 0.00 in0.0 mm 0.00 in0.0 mm
01:45 PM 72.0°F22.2°C 59.6°F15.3°C 65% Calm Calm 1.2 mph1.9 kmh 26.63 in901.8 mb - 0.00 in0.0 mm 0.00 in0.0 mm
01:40 PM 72.0°F22.2°C 59.6°F15.3°C 65% Calm Calm 2.3 mph3.7 kmh 26.63 in901.8 mb - 0.00 in0.0 mm 0.00 in0.0 mm
01:35 PM 72.0°F22.2°C 59.2°F15.1°C 64% Calm Calm 2.3 mph3.7 kmh 26.64 in902.1 mb - 0.00 in0.0 mm 0.00 in0.0 mm
01:30 PM 72.0°F22.2°C 60.9°F16.1°C 68% Calm Calm 1.2 mph1.9 kmh 26.63 in901.8 mb - 0.00 in0.0 mm 0.00 in0.0 mm
01:25 PM 72.0°F22.2°C 60.4°F15.8°C 67% Calm Calm -- 26.64 in902.1 mb - 0.00 in0.0 mm 0.00 in0.0 mm
01:20 PM 72.0°F22.2°C 59.2°F15.1°C 64% Calm Calm -- 26.64 in902.1 mb - 0.00 in0.0 mm 0.00 in0.0 mm
01:15 PM 71.2°F21.8°C 60.1°F15.6°C 68% Calm Calm -- 26.64 in902.1 mb - 0.00 in0.0 mm 0.00 in0.0 mm
01:10 PM 71.0°F21.7°C 60.3°F15.7°C 69% Calm Calm -- 26.64 in902.1 mb - 0.00 in0.0 mm 0.00 in0.0 mm
01:00 PM 71.0°F21.7°C 59.9°F15.5°C 68% Calm Calm -- 26.64 in902.1 mb - 0.00 in0.0 mm 0.00 in0.0 mm
12:55 PM 71.0°F21.7°C 58.2°F14.6°C 64% Calm Calm 2.3 mph3.7 kmh 26.64 in902.1 mb - 0.00 in0.0 mm 0.00 in0.0 mm
12:50 PM 71.0°F21.7°C 59.1°F15.1°C 66% 1.2 mph NW1.9 kmh NW 1.2 mph1.9 kmh 26.64 in902.1 mb - 0.00 in0.0 mm 0.00 in0.0 mm
12:45 PM 71.0°F21.7°C 59.1°F15.1°C 66% 2.3 mph WNW3.7 kmh WNW 3.5 mph5.6 kmh 26.65 in902.5 mb - 0.00 in0.0 mm 0.00 in0.0 mm
12:40 PM 70.8°F21.6°C 58.9°F14.9°C 66% 1.2 mph WNW1.9 kmh WNW 3.5 mph5.6 kmh 26.65 in902.5 mb - 0.00 in0.0 mm 0.00 in0.0 mm
12:35 PM 70.0°F21.1°C 59.0°F15.0°C 68% Calm Calm 1.2 mph1.9 kmh 26.65 in902.5 mb - 0.00 in0.0 mm 0.00 in0.0 mm
12:30 PM 71.0°F21.7°C 58.2°F14.6°C 64% 1.2 mph WNW1.9 kmh WNW 1.2 mph1.9 kmh 26.65 in902.5 mb - 0.00 in0.0 mm 0.00 in0.0 mm
12:25 PM 70.0°F21.1°C 59.4°F15.2°C 69% Calm Calm -- 26.65 in902.5 mb - 0.00 in0.0 mm 0.00 in0.0 mm
12:20 PM 70.0°F21.1°C 59.4°F15.2°C 69% Calm Calm 1.2 mph1.9 kmh 26.65 in902.5 mb - 0.00 in0.0 mm 0.00 in0.0 mm
12:15 PM 70.0°F21.1°C 59.0°F15.0°C 68% 1.2 mph NW1.9 kmh NW 2.3 mph3.7 kmh 26.65 in902.5 mb - 0.00 in0.0 mm 0.00 in0.0 mm
12:10 PM 70.5°F21.4°C 59.0°F15.0°C 67% Calm Calm 2.3 mph3.7 kmh 26.65 in902.5 mb - 0.00 in0.0 mm 0.00 in0.0 mm
12:00 PM 72.0°F22.2°C 60.0°F15.6°C 66% Calm Calm 1.2 mph1.9 kmh 26.65 in902.5 mb - 0.00 in0.0 mm 0.00 in0.0 mm
11:55 AM 70.0°F21.1°C 59.4°F15.2°C 69% Calm Calm 1.2 mph1.9 kmh 26.65 in902.5 mb - 0.00 in0.0 mm 0.00 in0.0 mm
11:50 AM 71.0°F21.7°C 60.3°F15.7°C 69% 1.2 mph WNW1.9 kmh WNW 3.5 mph5.6 kmh 26.65 in902.5 mb - 0.00 in0.0 mm 0.00 in0.0 mm
11:45 AM 71.0°F21.7°C 58.2°F14.6°C 64% Calm Calm 1.2 mph1.9 kmh 26.65 in902.5 mb - 0.00 in0.0 mm 0.00 in0.0 mm
11:40 AM 72.8°F22.7°C 59.5°F15.3°C 63% 2.3 mph WNW3.7 kmh WNW 2.3 mph3.7 kmh 26.65 in902.5 mb - 0.00 in0.0 mm 0.00 in0.0 mm
11:35 AM 73.2°F22.9°C 59.4°F15.2°C 62% 2.3 mph WNW3.7 kmh WNW 2.3 mph3.7 kmh 26.65 in902.5 mb - 0.00 in0.0 mm 0.00 in0.0 mm
11:30 AM 75.0°F23.9°C 59.2°F15.1°C 58% 1.2 mph NW1.9 kmh NW 2.3 mph3.7 kmh 26.65 in902.5 mb - 0.00 in0.0 mm 0.00 in0.0 mm
11:25 AM 76.0°F24.4°C 60.6°F15.9°C 59% 2.3 mph NW3.7 kmh NW 2.3 mph3.7 kmh 26.65 in902.5 mb - 0.00 in0.0 mm 0.00 in0.0 mm
11:20 AM 75.0°F23.9°C 60.6°F15.9°C 61% 2.3 mph W3.7 kmh W 2.3 mph3.7 kmh 26.65 in902.5 mb - 0.00 in0.0 mm 0.00 in0.0 mm
11:15 AM 75.0°F23.9°C 62.0°F16.7°C 64% 1.2 mph W1.9 kmh W 1.2 mph1.9 kmh 26.65 in902.5 mb - 0.00 in0.0 mm 0.00 in0.0 mm
11:10 AM 74.0°F23.3°C 58.3°F14.6°C 58% 1.2 mph WNW1.9 kmh WNW 1.2 mph1.9 kmh 26.65 in902.5 mb - 0.00 in0.0 mm 0.00 in0.0 mm
11:00 AM 74.0°F23.3°C 58.3°F14.6°C 58% Calm Calm -- 26.66 in902.8 mb - 0.00 in0.0 mm 0.00 in0.0 mm
10:55 AM 73.0°F22.8°C 58.8°F14.9°C 61% Calm Calm 1.2 mph1.9 kmh 26.66 in902.8 mb - 0.00 in0.0 mm 0.00 in0.0 mm
10:50 AM 74.0°F23.3°C 60.2°F15.7°C 62% Calm Calm 1.2 mph1.9 kmh 26.66 in902.8 mb - 0.00 in0.0 mm 0.00 in0.0 mm
10:45 AM 73.0°F22.8°C 59.2°F15.1°C 62% 1.2 mph WNW1.9 kmh WNW 2.3 mph3.7 kmh 26.66 in902.8 mb - 0.00 in0.0 mm 0.00 in0.0 mm
10:40 AM 73.0°F22.8°C 59.2°F15.1°C 62% Calm Calm 1.2 mph1.9 kmh 26.66 in902.8 mb - 0.00 in0.0 mm 0.00 in0.0 mm
10:35 AM 73.9°F23.3°C 58.2°F14.6°C 58% Calm Calm 2.3 mph3.7 kmh 26.66 in902.8 mb - 0.00 in0.0 mm 0.00 in0.0 mm
10:30 AM 75.0°F23.9°C 59.2°F15.1°C 58% Calm Calm 2.3 mph3.7 kmh 26.66 in902.8 mb - 0.00 in0.0 mm 0.00 in0.0 mm
10:25 AM 75.0°F23.9°C 58.7°F14.8°C 57% Calm Calm 1.2 mph1.9 kmh 26.66 in902.8 mb - 0.00 in0.0 mm 0.00 in0.0 mm
10:20 AM 75.0°F23.9°C 60.2°F15.7°C 60% Calm Calm -- 26.67 in903.2 mb - 0.00 in0.0 mm 0.00 in0.0 mm
10:15 AM 70.0°F21.1°C 58.1°F14.5°C 66% Calm Calm -- 26.67 in903.2 mb - 0.00 in0.0 mm 0.00 in0.0 mm
10:10 AM 71.0°F21.7°C 59.5°F15.3°C 67% Calm Calm -- 26.67 in903.2 mb - 0.00 in0.0 mm 0.00 in0.0 mm
10:00 AM 68.9°F20.5°C 59.5°F15.3°C 72% Calm Calm 1.2 mph1.9 kmh 26.67 in903.2 mb - 0.00 in0.0 mm 0.00 in0.0 mm
09:55 AM 68.0°F20.0°C 58.6°F14.8°C 72% Calm Calm -- 26.67 in903.2 mb - 0.00 in0.0 mm 0.00 in0.0 mm
09:50 AM 67.0°F19.4°C 59.2°F15.1°C 76% Calm Calm -- 26.67 in903.2 mb - 0.00 in0.0 mm 0.00 in0.0 mm
09:45 AM 67.0°F19.4°C 59.9°F15.5°C 78% Calm Calm -- 26.68 in903.5 mb - 0.00 in0.0 mm 0.00 in0.0 mm
09:40 AM 66.0°F18.9°C 58.9°F14.9°C 78% Calm Calm -- 26.67 in903.2 mb - 0.00 in0.0 mm 0.00 in0.0 mm
09:35 AM 65.0°F18.3°C 57.2°F14.0°C 76% Calm Calm -- 26.68 in903.5 mb - 0.00 in0.0 mm 0.00 in0.0 mm
09:30 AM 65.9°F18.8°C 58.1°F14.5°C 76% Calm Calm -- 26.68 in903.5 mb - 0.00 in0.0 mm 0.00 in0.0 mm
09:25 AM 66.0°F18.9°C 58.2°F14.6°C 76% Calm Calm -- 26.68 in903.5 mb - 0.00 in0.0 mm 0.00 in0.0 mm
09:20 AM 66.0°F18.9°C 58.2°F14.6°C 76% Calm Calm -- 26.68 in903.5 mb - 0.00 in0.0 mm 0.00 in0.0 mm
09:15 AM 66.0°F18.9°C 57.8°F14.3°C 75% Calm Calm -- 26.68 in903.5 mb - 0.00 in0.0 mm 0.00 in0.0 mm
09:10 AM 66.0°F18.9°C 57.5°F14.2°C 74% Calm Calm -- 26.67 in903.2 mb - 0.00 in0.0 mm 0.00 in0.0 mm
09:00 AM 66.0°F18.9°C 57.8°F14.3°C 75% Calm Calm -- 26.68 in903.5 mb - 0.00 in0.0 mm 0.00 in0.0 mm
08:55 AM 66.0°F18.9°C 57.8°F14.3°C 75% Calm Calm -- 26.68 in903.5 mb - 0.00 in0.0 mm 0.00 in0.0 mm
08:50 AM 66.0°F18.9°C 58.2°F14.6°C 76% Calm Calm -- 26.68 in903.5 mb - 0.00 in0.0 mm 0.00 in0.0 mm
08:45 AM 66.0°F18.9°C 58.9°F14.9°C 78% Calm Calm -- 26.68 in903.5 mb - 0.00 in0.0 mm 0.00 in0.0 mm
08:40 AM 65.0°F18.3°C 57.6°F14.2°C 77% Calm Calm -- 26.68 in903.5 mb - 0.00 in0.0 mm 0.00 in0.0 mm
08:35 AM 65.0°F18.3°C 59.7°F15.4°C 83% Calm Calm -- 26.68 in903.5 mb - 0.00 in0.0 mm 0.00 in0.0 mm
08:30 AM 64.0°F17.8°C 57.7°F14.3°C 80% Calm Calm -- 26.68 in903.5 mb - 0.00 in0.0 mm 0.00 in0.0 mm
08:25 AM 65.0°F18.3°C 59.4°F15.2°C 82% Calm Calm -- 26.68 in903.5 mb - 0.00 in0.0 mm 0.00 in0.0 mm
08:20 AM 65.0°F18.3°C 59.7°F15.4°C 83% Calm Calm -- 26.68 in903.5 mb - 0.00 in0.0 mm 0.00 in0.0 mm
08:15 AM 64.0°F17.8°C 59.1°F15.1°C 84% Calm Calm -- 26.67 in903.2 mb - 0.00 in0.0 mm 0.00 in0.0 mm
08:10 AM 63.0°F17.2°C 58.4°F14.7°C 85% Calm Calm -- 26.68 in903.5 mb - 0.00 in0.0 mm 0.00 in0.0 mm
08:00 AM 61.0°F16.1°C 58.0°F14.4°C 90% Calm Calm -- 26.67 in903.2 mb - 0.00 in0.0 mm 0.00 in0.0 mm
07:55 AM 60.0°F15.6°C 57.4°F14.1°C 91% Calm Calm -- 26.68 in903.5 mb - 0.00 in0.0 mm 0.00 in0.0 mm
07:50 AM 60.0°F15.6°C 57.4°F14.1°C 91% Calm Calm -- 26.68 in903.5 mb - 0.00 in0.0 mm 0.00 in0.0 mm
07:45 AM 60.0°F15.6°C 57.7°F14.3°C 92% Calm Calm -- 26.67 in903.2 mb - 0.00 in0.0 mm 0.00 in0.0 mm
07:40 AM 60.0°F15.6°C 57.4°F14.1°C 91% Calm Calm -- 26.68 in903.5 mb - 0.00 in0.0 mm 0.00 in0.0 mm
07:35 AM 60.0°F15.6°C 57.4°F14.1°C 91% Calm Calm -- 26.68 in903.5 mb - 0.00 in0.0 mm 0.00 in0.0 mm
07:30 AM 60.0°F15.6°C 57.1°F13.9°C 90% Calm Calm -- 26.68 in903.5 mb - 0.00 in0.0 mm 0.00 in0.0 mm
07:25 AM 60.0°F15.6°C 57.4°F14.1°C 91% Calm Calm -- 26.68 in903.5 mb - 0.00 in0.0 mm 0.00 in0.0 mm
07:20 AM 60.0°F15.6°C 57.4°F14.1°C 91% Calm Calm -- 26.68 in903.5 mb - 0.00 in0.0 mm 0.00 in0.0 mm
07:15 AM 60.0°F15.6°C 57.7°F14.3°C 92% Calm Calm -- 26.67 in903.2 mb - 0.00 in0.0 mm 0.00 in0.0 mm
07:10 AM 60.0°F15.6°C 57.4°F14.1°C 91% Calm Calm -- 26.67 in903.2 mb - 0.00 in0.0 mm 0.00 in0.0 mm
07:00 AM 59.0°F15.0°C 56.7°F13.7°C 92% Calm Calm -- 26.68 in903.5 mb - 0.00 in0.0 mm 0.00 in0.0 mm
06:55 AM 59.0°F15.0°C 56.7°F13.7°C 92% Calm Calm -- 26.67 in903.2 mb - 0.00 in0.0 mm 0.00 in0.0 mm
06:50 AM 59.0°F15.0°C 57.0°F13.9°C 93% Calm Calm -- 26.67 in903.2 mb - 0.00 in0.0 mm 0.00 in0.0 mm
06:45 AM 59.0°F15.0°C 57.0°F13.9°C 93% Calm Calm -- 26.67 in903.2 mb - 0.00 in0.0 mm 0.00 in0.0 mm
06:40 AM 58.0°F14.4°C 56.0°F13.3°C 93% Calm Calm -- 26.67 in903.2 mb - 0.00 in0.0 mm 0.00 in0.0 mm
06:35 AM 58.0°F14.4°C 56.3°F13.5°C 94% Calm Calm -- 26.68 in903.5 mb - 0.00 in0.0 mm 0.00 in0.0 mm
06:30 AM 58.0°F14.4°C 56.3°F13.5°C 94% Calm Calm -- 26.67 in903.2 mb - 0.00 in0.0 mm 0.00 in0.0 mm
06:25 AM 58.0°F14.4°C 56.3°F13.5°C 94% Calm Calm -- 26.67 in903.2 mb - 0.00 in0.0 mm 0.00 in0.0 mm
06:20 AM 57.0°F13.9°C 55.3°F12.9°C 94% Calm Calm -- 26.67 in903.2 mb - 0.00 in0.0 mm 0.00 in0.0 mm
06:15 AM 57.0°F13.9°C 55.3°F12.9°C 94% Calm Calm -- 26.67 in903.2 mb - 0.00 in0.0 mm 0.00 in0.0 mm
06:10 AM 57.0°F13.9°C 55.3°F12.9°C 94% Calm Calm -- 26.68 in903.5 mb - 0.00 in0.0 mm 0.00 in0.0 mm
06:00 AM 57.0°F13.9°C 55.0°F12.8°C 93% Calm Calm -- 26.68 in903.5 mb - 0.00 in0.0 mm 0.00 in0.0 mm
05:55 AM 57.0°F13.9°C 55.0°F12.8°C 93% Calm Calm -- 26.68 in903.5 mb - 0.00 in0.0 mm 0.00 in0.0 mm
05:50 AM 57.0°F13.9°C 55.3°F12.9°C 94% Calm Calm -- 26.68 in903.5 mb - 0.00 in0.0 mm 0.00 in0.0 mm
05:45 AM 57.0°F13.9°C 55.3°F12.9°C 94% Calm Calm -- 26.68 in903.5 mb - 0.00 in0.0 mm 0.00 in0.0 mm
05:40 AM 57.0°F13.9°C 55.3°F12.9°C 94% Calm Calm -- 26.68 in903.5 mb - 0.00 in0.0 mm 0.00 in0.0 mm
05:35 AM 57.0°F13.9°C 55.3°F12.9°C 94% Calm Calm -- 26.68 in903.5 mb - 0.00 in0.0 mm 0.00 in0.0 mm
05:30 AM 57.0°F13.9°C 55.3°F12.9°C 94% Calm Calm -- 26.68 in903.5 mb - 0.00 in0.0 mm 0.00 in0.0 mm
05:25 AM 57.0°F13.9°C 55.3°F12.9°C 94% Calm Calm -- 26.68 in903.5 mb - 0.00 in0.0 mm 0.00 in0.0 mm
05:20 AM 57.0°F13.9°C 55.3°F12.9°C 94% Calm Calm -- 26.68 in903.5 mb - 0.00 in0.0 mm 0.00 in0.0 mm
05:15 AM 57.0°F13.9°C 55.3°F12.9°C 94% Calm Calm -- 26.68 in903.5 mb - 0.00 in0.0 mm 0.00 in0.0 mm
05:10 AM 57.0°F13.9°C 55.3°F12.9°C 94% Calm Calm -- 26.68 in903.5 mb - 0.00 in0.0 mm 0.00 in0.0 mm
05:00 AM 57.0°F13.9°C 55.3°F12.9°C 94% Calm Calm -- 26.68 in903.5 mb - 0.00 in0.0 mm 0.00 in0.0 mm
04:55 AM 57.0°F13.9°C 55.0°F12.8°C 93% Calm Calm -- 26.68 in903.5 mb - 0.00 in0.0 mm 0.00 in0.0 mm
04:50 AM 57.0°F13.9°C 55.0°F12.8°C 93% Calm Calm -- 26.68 in903.5 mb - 0.00 in0.0 mm 0.00 in0.0 mm
04:45 AM 57.0°F13.9°C 55.0°F12.8°C 93% Calm Calm -- 26.68 in903.5 mb - 0.00 in0.0 mm 0.00 in0.0 mm
04:40 AM 57.0°F13.9°C 55.0°F12.8°C 93% Calm Calm -- 26.68 in903.5 mb - 0.00 in0.0 mm 0.00 in0.0 mm
04:35 AM 57.0°F13.9°C 55.0°F12.8°C 93% Calm Calm -- 26.69 in903.8 mb - 0.00 in0.0 mm 0.00 in0.0 mm
04:30 AM 57.0°F13.9°C 55.3°F12.9°C 94% Calm Calm -- 26.68 in903.5 mb - 0.00 in0.0 mm 0.00 in0.0 mm
04:25 AM 57.0°F13.9°C 55.3°F12.9°C 94% Calm Calm -- 26.68 in903.5 mb - 0.00 in0.0 mm 0.00 in0.0 mm
04:20 AM 57.0°F13.9°C 55.0°F12.8°C 93% Calm Calm -- 26.68 in903.5 mb - 0.00 in0.0 mm 0.00 in0.0 mm
04:15 AM 57.0°F13.9°C 55.0°F12.8°C 93% Calm Calm -- 26.68 in903.5 mb - 0.00 in0.0 mm 0.00 in0.0 mm
04:10 AM 57.0°F13.9°C 55.3°F12.9°C 94% Calm Calm -- 26.68 in903.5 mb - 0.00 in0.0 mm 0.00 in0.0 mm
04:00 AM 57.0°F13.9°C 55.3°F12.9°C 94% Calm Calm -- 26.69 in903.8 mb - 0.00 in0.0 mm 0.00 in0.0 mm
03:55 AM 57.0°F13.9°C 55.3°F12.9°C 94% Calm Calm -- 26.69 in903.8 mb - 0.00 in0.0 mm 0.00 in0.0 mm
03:50 AM 57.0°F13.9°C 55.6°F13.1°C 95% Calm Calm -- 26.69 in903.8 mb - 0.00 in0.0 mm 0.00 in0.0 mm
03:45 AM 57.0°F13.9°C 55.6°F13.1°C 95% Calm Calm -- 26.69 in903.8 mb - 0.00 in0.0 mm 0.00 in0.0 mm
03:40 AM 57.0°F13.9°C 55.6°F13.1°C 95% Calm Calm -- 26.69 in903.8 mb - 0.00 in0.0 mm 0.00 in0.0 mm
03:35 AM 57.0°F13.9°C 55.3°F12.9°C 94% Calm Calm -- 26.69 in903.8 mb - 0.00 in0.0 mm 0.00 in0.0 mm
03:30 AM 57.0°F13.9°C 55.3°F12.9°C 94% Calm Calm -- 26.69 in903.8 mb - 0.00 in0.0 mm 0.00 in0.0 mm
03:25 AM 57.0°F13.9°C 55.3°F12.9°C 94% Calm Calm -- 26.69 in903.8 mb - 0.00 in0.0 mm 0.00 in0.0 mm
03:20 AM 57.0°F13.9°C 55.3°F12.9°C 94% Calm Calm -- 26.69 in903.8 mb - 0.00 in0.0 mm 0.00 in0.0 mm
03:15 AM 57.0°F13.9°C 55.3°F12.9°C 94% Calm Calm -- 26.69 in903.8 mb - 0.00 in0.0 mm 0.00 in0.0 mm
03:10 AM 57.0°F13.9°C 55.3°F12.9°C 94% Calm Calm -- 26.69 in903.8 mb - 0.00 in0.0 mm 0.00 in0.0 mm
03:00 AM 57.0°F13.9°C 55.0°F12.8°C 93% Calm Calm -- 26.69 in903.8 mb - 0.00 in0.0 mm 0.00 in0.0 mm
02:55 AM 57.0°F13.9°C 55.0°F12.8°C 93% Calm Calm -- 26.69 in903.8 mb - 0.00 in0.0 mm 0.00 in0.0 mm
02:50 AM 57.0°F13.9°C 55.0°F12.8°C 93% Calm Calm -- 26.69 in903.8 mb - 0.00 in0.0 mm 0.00 in0.0 mm
02:45 AM 57.0°F13.9°C 55.0°F12.8°C 93% Calm Calm -- 26.70 in904.2 mb - 0.00 in0.0 mm 0.00 in0.0 mm
02:40 AM 57.0°F13.9°C 55.3°F12.9°C 94% Calm Calm -- 26.70 in904.2 mb - 0.00 in0.0 mm 0.00 in0.0 mm
02:35 AM 57.0°F13.9°C 55.3°F12.9°C 94% Calm Calm -- 26.68 in903.5 mb - 0.00 in0.0 mm 0.00 in0.0 mm
02:30 AM 57.0°F13.9°C 55.6°F13.1°C 95% Calm Calm -- 26.69 in903.8 mb - 0.00 in0.0 mm 0.00 in0.0 mm
02:25 AM 57.0°F13.9°C 55.3°F12.9°C 94% Calm Calm -- 26.69 in903.8 mb - 0.00 in0.0 mm 0.00 in0.0 mm
02:20 AM 57.0°F13.9°C 55.3°F12.9°C 94% Calm Calm -- 26.69 in903.8 mb - 0.00 in0.0 mm 0.00 in0.0 mm
02:15 AM 57.0°F13.9°C 55.3°F12.9°C 94% Calm Calm -- 26.69 in903.8 mb - 0.00 in0.0 mm 0.00 in0.0 mm
02:10 AM 57.0°F13.9°C 55.3°F12.9°C 94% Calm Calm -- 26.69 in903.8 mb - 0.00 in0.0 mm 0.00 in0.0 mm
02:00 AM 57.0°F13.9°C 55.6°F13.1°C 95% Calm Calm -- 26.70 in904.2 mb - 0.00 in0.0 mm 0.00 in0.0 mm
01:55 AM 56.0°F13.3°C 54.9°F12.7°C 96% Calm Calm -- 26.69 in903.8 mb - 0.00 in0.0 mm 0.00 in0.0 mm
01:50 AM 56.0°F13.3°C 54.9°F12.7°C 96% Calm Calm -- 26.69 in903.8 mb - 0.00 in0.0 mm 0.00 in0.0 mm
01:45 AM 56.0°F13.3°C 54.9°F12.7°C 96% Calm Calm -- 26.69 in903.8 mb - 0.00 in0.0 mm 0.00 in0.0 mm
01:40 AM 56.0°F13.3°C 54.6°F12.6°C 95% Calm Calm -- 26.68 in903.5 mb - 0.00 in0.0 mm 0.00 in0.0 mm
01:35 AM 56.0°F13.3°C 54.6°F12.6°C 95% Calm Calm -- 26.69 in903.8 mb - 0.00 in0.0 mm 0.00 in0.0 mm
01:30 AM 56.0°F13.3°C 54.6°F12.6°C 95% Calm Calm -- 26.69 in903.8 mb - 0.00 in0.0 mm 0.00 in0.0 mm
01:25 AM 56.0°F13.3°C 54.6°F12.6°C 95% Calm Calm -- 26.69 in903.8 mb - 0.00 in0.0 mm 0.00 in0.0 mm
01:20 AM 56.0°F13.3°C 54.6°F12.6°C 95% Calm Calm -- 26.69 in903.8 mb - 0.00 in0.0 mm 0.00 in0.0 mm
01:15 AM 56.0°F13.3°C 54.6°F12.6°C 95% Calm Calm -- 26.69 in903.8 mb - 0.00 in0.0 mm 0.00 in0.0 mm
01:10 AM 56.0°F13.3°C 54.6°F12.6°C 95% Calm Calm -- 26.69 in903.8 mb - 0.00 in0.0 mm 0.00 in0.0 mm
01:00 AM 58.0°F14.4°C 56.6°F13.7°C 95% Calm Calm -- 26.69 in903.8 mb - 0.00 in0.0 mm 0.00 in0.0 mm
12:55 AM 58.0°F14.4°C 56.6°F13.7°C 95% Calm Calm -- 26.69 in903.8 mb - 0.00 in0.0 mm 0.00 in0.0 mm
12:50 AM 58.0°F14.4°C 56.6°F13.7°C 95% Calm Calm -- 26.69 in903.8 mb - 0.00 in0.0 mm 0.00 in0.0 mm
12:45 AM 58.0°F14.4°C 56.6°F13.7°C 95% Calm Calm -- 26.69 in903.8 mb - 0.00 in0.0 mm 0.00 in0.0 mm
12:40 AM 58.0°F14.4°C 56.6°F13.7°C 95% Calm Calm -- 26.69 in903.8 mb - 0.00 in0.0 mm 0.00 in0.0 mm
12:35 AM 58.0°F14.4°C 56.6°F13.7°C 95% Calm Calm -- 26.69 in903.8 mb - 0.00 in0.0 mm 0.00 in0.0 mm
12:30 AM 58.0°F14.4°C 56.6°F13.7°C 95% Calm Calm -- 26.69 in903.8 mb - 0.00 in0.0 mm 0.00 in0.0 mm
12:25 AM 58.0°F14.4°C 56.6°F13.7°C 95% Calm Calm -- 26.69 in903.8 mb - 0.00 in0.0 mm 0.00 in0.0 mm
12:20 AM 58.0°F14.4°C 56.6°F13.7°C 95% Calm Calm -- 26.69 in903.8 mb - 0.00 in0.0 mm 0.00 in0.0 mm
12:15 AM 58.0°F14.4°C 56.6°F13.7°C 95% Calm Calm -- 26.69 in903.8 mb - 0.00 in0.0 mm 0.00 in0.0 mm
12:10 AM 58.0°F14.4°C 56.6°F13.7°C 95% Calm Calm -- 26.69 in903.8 mb - 0.00 in0.0 mm 0.00 in0.0 mm
12:00 AM 58.0°F14.4°C 56.6°F13.7°C 95% Calm Calm -- 26.69 in903.8 mb - 0.00 in0.0 mm 0.00 in0.0 mm